createdAt,value
2022-12-13T00:01:30.076Z,21.80
2022-12-13T00:04:02.091Z,21.38
2022-12-13T00:06:31.342Z,20.83
2022-12-13T00:08:59.707Z,22.92
2022-12-13T00:11:29.353Z,21.42
2022-12-13T00:13:57.494Z,21.10
2022-12-13T00:16:26.676Z,22.85
2022-12-13T00:18:56.418Z,22.40
2022-12-13T00:21:26.862Z,22.02
2022-12-13T00:23:55.206Z,22.40
2022-12-13T00:26:25.101Z,21.23
2022-12-13T00:28:54.578Z,22.70
2022-12-13T00:34:11.662Z,21.50
2022-12-13T00:36:39.394Z,21.13
2022-12-13T00:39:07.107Z,21.67
2022-12-13T00:41:37.250Z,20.95
2022-12-13T00:44:06.366Z,21.35
2022-12-13T00:46:34.157Z,19.65
2022-12-13T00:49:02.762Z,20.98
2022-12-13T00:51:32.930Z,21.27
2022-12-13T00:54:01.373Z,20.92
2022-12-13T00:56:31.940Z,21.00
2022-12-13T00:58:59.963Z,22.98
2022-12-13T01:01:31.371Z,21.00
2022-12-13T01:04:02.437Z,21.77
2022-12-13T01:06:34.069Z,21.10
2022-12-13T01:09:02.296Z,21.80
2022-12-13T01:11:30.049Z,21.48
2022-12-13T01:13:57.716Z,22.33
2022-12-13T01:16:25.435Z,22.33
2022-12-13T01:18:54.484Z,21.42
2022-12-13T01:21:23.010Z,20.88
2022-12-13T01:23:50.796Z,20.23
2022-12-13T01:26:20.637Z,20.88
2022-12-13T01:28:48.584Z,22.90
2022-12-13T01:31:18.446Z,22.15
2022-12-13T01:33:46.511Z,22.30
2022-12-13T01:36:18.101Z,21.63
2022-12-13T01:38:45.890Z,22.35
2022-12-13T01:41:17.402Z,22.02
2022-12-13T01:43:55.934Z,21.77
2022-12-13T01:46:24.033Z,21.52
2022-12-13T01:48:58.595Z,20.52
2022-12-13T01:51:33.370Z,23.00
2022-12-13T01:54:04.247Z,22.10
2022-12-13T01:56:37.407Z,22.40
2022-12-13T01:59:08.744Z,22.17
2022-12-13T02:01:37.237Z,21.88
2022-12-13T02:04:05.332Z,22.92
2022-12-13T02:06:37.008Z,22.65
2022-12-13T02:09:07.370Z,21.67
2022-12-13T02:11:38.967Z,22.30
2022-12-13T02:14:06.598Z,22.10
2022-12-13T02:16:47.537Z,22.92
2022-12-13T02:19:53.207Z,22.40
2022-12-13T02:22:45.265Z,22.63
2022-12-13T02:25:36.654Z,21.05
2022-12-13T02:28:31.678Z,21.70
2022-12-13T02:31:10.497Z,22.35
2022-12-13T02:33:50.295Z,20.90
2022-12-13T02:36:22.059Z,21.42
2022-12-13T02:38:57.239Z,22.67
2022-12-13T02:41:29.735Z,22.60
2022-12-13T02:44:02.379Z,23.45
2022-12-13T02:46:36.735Z,22.45
2022-12-13T02:49:05.972Z,23.85
2022-12-13T02:51:35.879Z,22.38
2022-12-13T02:54:04.607Z,23.05
2022-12-13T02:56:32.408Z,21.77
2022-12-13T02:59:03.306Z,22.63
2022-12-13T03:01:49.691Z,23.25
2022-12-13T03:04:33.590Z,22.80
2022-12-13T03:07:10.828Z,22.92
2022-12-13T03:09:50.031Z,23.23
2022-12-13T03:12:48.441Z,22.10
2022-12-13T03:15:22.761Z,23.20
2022-12-13T03:17:56.812Z,21.85
2022-12-13T03:20:27.348Z,21.23
2022-12-13T03:22:56.548Z,23.23
2022-12-13T03:25:30.804Z,23.60
2022-12-13T03:28:01.414Z,22.58
2022-12-13T03:30:31.908Z,23.55
2022-12-13T03:33:01.739Z,23.40
2022-12-13T03:35:33.967Z,22.48
2022-12-13T03:38:02.796Z,24.20
2022-12-13T03:40:31.370Z,22.38
2022-12-13T03:42:59.191Z,24.08
2022-12-13T03:45:28.054Z,24.88
2022-12-13T03:47:55.894Z,23.20
2022-12-13T03:50:27.018Z,22.95
2022-12-13T03:52:59.652Z,24.33
2022-12-13T03:55:27.416Z,20.60
2022-12-13T03:57:55.170Z,21.77
2022-12-13T04:00:23.115Z,21.90
2022-12-13T04:02:50.792Z,20.48
2022-12-13T04:05:18.861Z,22.38
2022-12-13T04:07:48.662Z,22.60
2022-12-13T04:10:25.426Z,22.13
2022-12-13T04:13:12.559Z,20.73
2022-12-13T04:15:40.686Z,20.75
2022-12-13T04:18:08.331Z,21.65
2022-12-13T04:20:35.964Z,23.52
2022-12-13T04:23:10.081Z,23.23
2022-12-13T04:25:38.758Z,20.90
2022-12-13T04:28:06.564Z,18.45
2022-12-13T04:30:34.691Z,20.40
2022-12-13T04:33:02.464Z,20.35
2022-12-13T04:35:30.201Z,20.92
2022-12-13T04:37:58.014Z,21.30
2022-12-13T04:40:27.421Z,23.17
2022-12-13T04:42:55.646Z,23.10
2022-12-13T04:45:24.201Z,22.90
2022-12-13T04:47:51.965Z,20.02
2022-12-13T04:50:19.877Z,21.90
2022-12-13T04:52:47.552Z,21.48
2022-12-13T04:55:15.313Z,20.80
2022-12-13T04:57:44.391Z,21.40
2022-12-13T05:00:14.461Z,22.50
2022-12-13T05:02:42.630Z,21.65
2022-12-13T05:05:11.297Z,21.13
2022-12-13T05:07:42.094Z,21.30
2022-12-13T05:10:11.867Z,22.38
2022-12-13T05:12:39.632Z,21.67
2022-12-13T05:15:09.734Z,21.45
2022-12-13T05:17:37.463Z,20.80
2022-12-13T05:20:05.937Z,23.50
2022-12-13T05:22:33.662Z,21.23
2022-12-13T05:25:01.474Z,22.25
2022-12-13T05:27:30.453Z,22.23
2022-12-13T05:30:03.640Z,21.67
2022-12-13T05:32:43.019Z,21.65
2022-12-13T05:35:13.124Z,22.10
2022-12-13T05:37:41.176Z,20.98
2022-12-13T05:40:18.754Z,23.27
2022-12-13T05:42:46.436Z,22.55
2022-12-13T05:45:14.644Z,21.67
2022-12-13T05:47:43.917Z,19.65
2022-12-13T05:50:12.066Z,22.05
2022-12-13T05:52:40.350Z,22.90
2022-12-13T05:55:08.565Z,21.60
2022-12-13T05:57:36.323Z,21.33
2022-12-13T06:00:07.530Z,22.45
2022-12-13T06:02:57.090Z,21.25
2022-12-13T06:05:28.474Z,23.35
2022-12-13T06:07:58.379Z,21.55
2022-12-13T06:10:34.375Z,21.70
2022-12-13T06:13:22.117Z,20.70
2022-12-13T06:15:51.523Z,20.50
2022-12-13T06:18:20.575Z,20.98
2022-12-13T06:20:57.673Z,20.02
2022-12-13T06:23:25.587Z,21.48
2022-12-13T06:25:53.356Z,19.65
2022-12-13T06:28:21.351Z,20.30
2022-12-13T06:30:52.262Z,21.50
2022-12-13T06:33:23.308Z,21.77
2022-12-13T06:35:52.548Z,20.38
2022-12-13T06:38:31.007Z,21.05
2022-12-13T06:41:09.001Z,19.95
2022-12-13T06:43:36.899Z,20.45
2022-12-13T06:46:06.044Z,20.13
2022-12-13T06:48:35.644Z,21.27
2022-12-13T06:51:03.921Z,20.27
2022-12-13T06:53:32.551Z,19.75
2022-12-13T06:56:04.521Z,19.15
2022-12-13T06:58:33.056Z,21.20
2022-12-13T07:01:05.040Z,21.05
2022-12-13T07:03:33.155Z,22.15
2022-12-13T07:06:06.769Z,20.30
2022-12-13T07:08:34.742Z,21.20
2022-12-13T07:11:02.554Z,22.48
2022-12-13T07:13:31.054Z,21.60
2022-12-13T07:16:00.946Z,19.63
2022-12-13T07:18:29.954Z,21.05
2022-12-13T07:20:57.808Z,19.65
2022-12-13T07:23:26.859Z,21.00
2022-12-13T07:25:55.139Z,19.80
2022-12-13T07:28:23.293Z,18.20
2022-12-13T07:30:51.340Z,16.08
2022-12-13T07:33:22.115Z,17.17
2022-12-13T07:35:55.567Z,17.10
2022-12-13T07:38:23.525Z,22.27
2022-12-13T07:40:52.595Z,22.35
2022-12-13T07:43:20.659Z,21.30
2022-12-13T07:45:48.646Z,22.35
2022-12-13T07:48:16.550Z,21.73
2022-12-13T07:50:44.409Z,24.27
2022-12-13T07:53:12.189Z,23.02
2022-12-13T07:55:39.901Z,22.65
2022-12-13T07:58:10.853Z,22.52
2022-12-13T08:00:39.690Z,22.95
2022-12-13T08:03:09.316Z,21.38
2022-12-13T08:05:40.039Z,21.23
2022-12-13T08:08:10.201Z,21.30
2022-12-13T08:10:38.121Z,22.27
2022-12-13T08:13:06.757Z,21.27
2022-12-13T08:15:35.875Z,20.95
2022-12-13T08:18:04.056Z,22.50
2022-12-13T08:20:31.827Z,20.98
2022-12-13T08:23:02.053Z,22.38
2022-12-13T08:25:31.305Z,22.05
2022-12-13T08:28:02.010Z,21.80
2022-12-13T08:30:30.812Z,21.98
2022-12-13T08:33:05.331Z,22.35
2022-12-13T08:35:34.578Z,24.02
2022-12-13T08:38:02.797Z,22.80
2022-12-13T08:40:30.505Z,20.77
2022-12-13T08:42:58.148Z,20.65
2022-12-13T08:45:27.018Z,21.63
2022-12-13T08:47:55.625Z,19.73
2022-12-13T08:50:24.705Z,21.35
2022-12-13T08:52:52.998Z,19.77
2022-12-13T08:55:31.532Z,23.67
2022-12-13T08:58:00.996Z,20.40
2022-12-13T09:00:29.041Z,22.70
2022-12-13T09:03:04.117Z,20.38
2022-12-13T09:05:35.155Z,23.00
2022-12-13T09:08:04.394Z,20.77
2022-12-13T09:10:59.372Z,22.23
2022-12-13T09:13:31.672Z,22.65
2022-12-13T09:16:01.444Z,21.60
2022-12-13T09:18:36.140Z,21.48
2022-12-13T09:21:11.213Z,21.27
2022-12-13T09:23:45.764Z,19.92
2022-12-13T09:26:16.745Z,21.17
2022-12-13T09:28:44.640Z,20.38
2022-12-13T09:31:14.918Z,18.67
2022-12-13T09:33:43.706Z,19.88
2022-12-13T09:36:15.056Z,18.65
2022-12-13T09:38:42.796Z,17.90
2022-12-13T09:41:28.427Z,18.15
2022-12-13T09:44:00.994Z,17.10
2022-12-13T09:46:34.826Z,17.08
2022-12-13T09:49:23.107Z,14.85
2022-12-13T09:52:10.055Z,13.98
2022-12-13T09:54:49.022Z,15.23
2022-12-13T09:57:32.777Z,14.70
2022-12-13T10:00:03.295Z,16.50
2022-12-13T10:02:35.013Z,15.50
2022-12-13T10:05:23.270Z,15.90
2022-12-13T10:07:55.666Z,13.77
2022-12-13T10:10:23.718Z,14.77
2022-12-13T10:12:58.898Z,14.82
2022-12-13T10:15:29.216Z,14.00
2022-12-13T10:17:57.265Z,14.48
2022-12-13T10:20:29.960Z,14.52
2022-12-13T10:23:31.415Z,14.40
2022-12-13T10:25:51.548Z,14.70
2022-12-13T10:28:25.709Z,14.95
2022-12-13T10:30:53.603Z,13.68
2022-12-13T10:33:25.544Z,15.07
2022-12-13T10:36:07.519Z,15.27
2022-12-13T10:38:42.115Z,14.07
2022-12-13T10:41:32.516Z,15.45
2022-12-13T10:44:24.195Z,13.35
2022-12-13T10:47:01.735Z,15.23
2022-12-13T10:49:40.264Z,15.20
2022-12-13T10:52:31.358Z,14.38
2022-12-13T10:55:23.280Z,16.60
2022-12-13T10:57:53.689Z,15.73
2022-12-13T11:00:40.963Z,13.52
2022-12-13T11:03:11.626Z,14.98
2022-12-13T11:05:40.589Z,13.23
2022-12-13T11:08:17.531Z,13.40
2022-12-13T11:10:47.451Z,12.20
2022-12-13T11:13:29.337Z,14.65
2022-12-13T11:15:57.761Z,13.80
2022-12-13T11:18:28.016Z,12.70
2022-12-13T11:20:58.827Z,16.15
2022-12-13T11:23:30.901Z,12.68
2022-12-13T11:26:03.297Z,12.90
2022-12-13T11:28:58.711Z,12.18
2022-12-13T11:31:36.102Z,15.27
2022-12-13T11:34:17.710Z,13.55
2022-12-13T11:36:57.618Z,14.07
2022-12-13T11:39:31.985Z,14.27
2022-12-13T11:42:06.746Z,15.55
2022-12-13T11:44:47.840Z,12.70
2022-12-13T11:47:21.120Z,14.38
2022-12-13T11:49:50.689Z,14.10
2022-12-13T11:52:22.544Z,15.48
2022-12-13T11:54:55.481Z,14.00
2022-12-13T11:57:36.641Z,13.43
2022-12-13T12:00:13.343Z,14.20
2022-12-13T12:02:45.528Z,14.55
2022-12-13T12:05:26.209Z,13.93
2022-12-13T12:08:31.881Z,13.85
2022-12-13T12:10:50.583Z,13.07
2022-12-13T12:13:24.090Z,15.35
2022-12-13T12:16:00.274Z,13.55
2022-12-13T12:18:28.763Z,12.60
2022-12-13T12:21:17.202Z,13.00
2022-12-13T12:24:01.468Z,15.13
2022-12-13T12:26:39.556Z,15.52
2022-12-13T12:29:25.612Z,14.65
2022-12-13T12:32:01.580Z,14.30
2022-12-13T12:34:41.790Z,14.82
2022-12-13T12:37:20.036Z,14.63
2022-12-13T12:40:02.179Z,13.00
2022-12-13T12:43:13.432Z,14.25
2022-12-13T12:45:58.119Z,14.63
2022-12-13T12:49:00.538Z,13.60
2022-12-13T12:51:38.115Z,13.65
2022-12-13T12:54:31.898Z,14.43
2022-12-13T12:57:07.544Z,12.82
2022-12-13T12:59:45.337Z,14.82
2022-12-13T13:02:20.528Z,15.65
2022-12-13T13:04:55.899Z,15.52
2022-12-13T13:07:28.163Z,15.85
2022-12-13T13:09:56.433Z,14.85
2022-12-13T13:12:28.893Z,15.00
2022-12-13T13:14:57.714Z,15.20
2022-12-13T13:17:48.541Z,13.90
2022-12-13T13:20:26.783Z,16.33
2022-12-13T13:23:17.550Z,15.82
2022-12-13T13:26:15.784Z,14.68
2022-12-13T13:28:42.551Z,14.63
2022-12-13T13:31:10.495Z,15.70
2022-12-13T13:33:47.400Z,15.75
2022-12-13T13:36:48.390Z,15.65
2022-12-13T13:39:17.204Z,14.88
2022-12-13T13:42:10.181Z,14.32
2022-12-13T13:44:57.147Z,13.95
2022-12-13T13:47:39.780Z,11.35
2022-12-13T13:50:52.719Z,12.68
2022-12-13T13:53:55.895Z,12.40
2022-12-13T13:56:50.298Z,14.85
2022-12-13T13:59:55.640Z,13.98
2022-12-13T14:02:59.337Z,12.65
2022-12-13T14:06:12.637Z,11.93
2022-12-13T14:09:01.576Z,13.95
2022-12-13T14:12:21.914Z,12.10
2022-12-13T14:15:13.177Z,13.27
2022-12-13T14:18:22.038Z,11.88
2022-12-13T14:21:04.740Z,12.70
2022-12-13T14:23:47.241Z,12.48
2022-12-13T14:26:29.932Z,13.40
2022-12-13T14:29:01.251Z,12.05
2022-12-13T14:31:37.171Z,12.07
2022-12-13T14:34:07.519Z,11.23
2022-12-13T14:36:39.094Z,13.45
2022-12-13T14:39:16.350Z,12.30
2022-12-13T14:41:57.352Z,11.40
2022-12-13T14:44:27.789Z,11.57
2022-12-13T14:46:57.416Z,11.65
2022-12-13T14:49:28.078Z,11.60
2022-12-13T14:52:01.523Z,12.55
2022-12-13T14:54:37.715Z,11.30
2022-12-13T14:57:06.177Z,13.18
2022-12-13T14:59:34.477Z,12.43
2022-12-13T15:02:05.486Z,12.30
2022-12-13T15:04:35.088Z,11.02
2022-12-13T15:07:08.964Z,11.27
2022-12-13T15:09:39.430Z,11.50
2022-12-13T15:12:23.817Z,12.38
2022-12-13T15:14:59.801Z,10.80
2022-12-13T15:17:33.837Z,10.80
2022-12-13T15:20:02.244Z,11.35
2022-12-13T15:22:31.356Z,12.60
2022-12-13T15:24:59.818Z,12.25
2022-12-13T15:27:28.436Z,11.50
2022-12-13T15:29:56.728Z,10.95
2022-12-13T15:32:24.601Z,10.30
2022-12-13T15:34:53.413Z,11.52
2022-12-13T15:37:30.224Z,11.13
2022-12-13T15:40:02.181Z,13.05
2022-12-13T15:42:33.488Z,14.65
2022-12-13T15:45:03.460Z,12.02
2022-12-13T15:47:31.395Z,13.18
2022-12-13T15:50:01.190Z,11.80
2022-12-13T15:52:33.273Z,10.75
2022-12-13T15:55:19.697Z,11.68
2022-12-13T15:57:52.239Z,11.38
2022-12-13T16:00:31.516Z,12.38
2022-12-13T16:03:09.303Z,12.77
2022-12-13T16:05:41.287Z,12.02
2022-12-13T16:08:19.567Z,12.15
2022-12-13T16:10:49.661Z,10.60
2022-12-13T16:13:26.224Z,11.40
2022-12-13T16:16:00.173Z,11.68
2022-12-13T16:18:45.844Z,12.75
2022-12-13T16:21:14.335Z,11.35
2022-12-13T16:23:48.466Z,12.70
2022-12-13T16:26:23.455Z,10.95
2022-12-13T16:28:51.217Z,10.80
2022-12-13T16:31:22.092Z,11.63
2022-12-13T16:33:50.166Z,12.00
2022-12-13T16:36:18.579Z,15.27
2022-12-13T16:38:46.390Z,13.25
2022-12-13T16:41:15.622Z,11.98
2022-12-13T16:43:56.019Z,12.82
2022-12-13T16:47:12.765Z,12.10
2022-12-13T16:49:21.342Z,13.20
2022-12-13T16:51:49.447Z,13.00
2022-12-13T16:54:18.566Z,13.07
2022-12-13T16:56:46.628Z,12.50
2022-12-13T16:59:17.210Z,11.90
2022-12-13T17:01:45.684Z,11.90
2022-12-13T17:04:19.520Z,12.00
2022-12-13T17:06:48.715Z,12.52
2022-12-13T17:09:16.625Z,12.68
2022-12-13T17:11:44.349Z,13.25
2022-12-13T17:14:12.140Z,12.65
2022-12-13T17:16:41.240Z,11.80
2022-12-13T17:19:10.615Z,13.55
2022-12-13T17:21:38.460Z,12.82
2022-12-13T17:24:08.051Z,11.57
2022-12-13T17:26:36.176Z,10.95
2022-12-13T17:29:04.430Z,11.50
2022-12-13T17:31:35.807Z,11.00
2022-12-13T17:34:05.640Z,13.90
2022-12-13T17:36:33.479Z,12.45
2022-12-13T17:39:01.135Z,13.00
2022-12-13T17:41:28.826Z,11.80
2022-12-13T17:43:59.504Z,12.60
2022-12-13T17:46:27.307Z,13.18
2022-12-13T17:48:55.055Z,13.45
2022-12-13T17:51:24.159Z,12.35
2022-12-13T17:53:51.934Z,12.77
2022-12-13T17:56:20.319Z,13.25
2022-12-13T17:58:48.007Z,12.15
2022-12-13T18:01:17.598Z,12.32
2022-12-13T18:03:47.760Z,12.10
2022-12-13T18:06:18.550Z,12.82
2022-12-13T18:08:47.757Z,13.35
2022-12-13T18:11:34.388Z,13.35
2022-12-13T18:14:02.808Z,11.73
2022-12-13T18:16:36.377Z,11.50
2022-12-13T18:19:07.052Z,12.30
2022-12-13T18:21:35.356Z,12.90
2022-12-13T18:24:05.306Z,12.70
2022-12-13T18:26:33.160Z,12.63
2022-12-13T18:29:00.885Z,13.18
2022-12-13T18:31:28.738Z,13.35
2022-12-13T18:33:56.692Z,13.40
2022-12-13T18:36:26.208Z,13.73
2022-12-13T18:38:54.396Z,17.67
2022-12-13T18:41:26.331Z,14.70
2022-12-13T18:43:59.783Z,15.07
2022-12-13T18:46:28.482Z,13.02
2022-12-13T18:48:56.772Z,14.10
2022-12-13T18:51:25.161Z,14.05
2022-12-13T18:53:53.507Z,12.90
2022-12-13T18:56:21.519Z,13.50
2022-12-13T18:58:52.005Z,13.75
2022-12-13T19:01:20.553Z,14.70
2022-12-13T19:03:49.844Z,14.43
2022-12-13T19:06:19.877Z,13.35
2022-12-13T19:08:48.873Z,14.23
2022-12-13T19:11:16.972Z,17.10
2022-12-13T19:13:45.041Z,15.48
2022-12-13T19:16:18.765Z,14.40
2022-12-13T19:18:47.376Z,16.08
2022-12-13T19:21:16.853Z,14.73
2022-12-13T19:23:49.511Z,15.00
2022-12-13T19:26:21.512Z,15.20
2022-12-13T19:28:49.368Z,14.18
2022-12-13T19:31:18.405Z,14.27
2022-12-13T19:33:46.587Z,14.40
2022-12-13T19:36:14.378Z,14.23
2022-12-13T19:38:42.882Z,13.73
2022-12-13T19:41:13.421Z,13.30
2022-12-13T19:43:41.493Z,12.90
2022-12-13T19:46:09.555Z,13.82
2022-12-13T19:48:39.323Z,14.98
2022-12-13T19:51:09.661Z,12.82
2022-12-13T19:53:39.071Z,13.98
2022-12-13T19:56:10.806Z,14.45
2022-12-13T19:58:39.389Z,13.10
2022-12-13T20:01:08.771Z,14.85
2022-12-13T20:03:39.628Z,13.50
2022-12-13T20:06:09.420Z,12.82
2022-12-13T20:08:37.170Z,14.02
2022-12-13T20:11:07.096Z,13.73
2022-12-13T20:13:35.606Z,12.38
2022-12-13T20:16:04.502Z,14.07
2022-12-13T20:18:33.020Z,13.98
2022-12-13T20:21:12.033Z,15.52
2022-12-13T20:23:41.218Z,15.27
2022-12-13T20:26:12.174Z,14.55
2022-12-13T20:28:39.962Z,15.70
2022-12-13T20:31:09.429Z,15.05
2022-12-13T20:33:38.202Z,13.93
2022-12-13T20:36:26.912Z,14.95
2022-12-13T20:38:56.539Z,15.52
2022-12-13T20:41:25.670Z,14.60
2022-12-13T20:43:54.289Z,14.18
2022-12-13T20:46:22.900Z,15.32
2022-12-13T20:48:51.480Z,15.05
2022-12-13T20:51:22.830Z,15.25
2022-12-13T20:53:51.778Z,14.90
2022-12-13T20:56:21.292Z,15.77
2022-12-13T20:58:49.121Z,17.45
2022-12-13T21:01:18.446Z,17.30
2022-12-13T21:03:46.739Z,16.55
2022-12-13T21:06:15.085Z,15.00
2022-12-13T21:08:52.844Z,15.63
2022-12-13T21:11:27.123Z,15.40
2022-12-13T21:14:00.985Z,15.80
2022-12-13T21:16:34.580Z,15.63
2022-12-13T21:19:02.576Z,15.70
2022-12-13T21:21:30.699Z,16.10
2022-12-13T21:23:59.940Z,15.70
2022-12-13T21:26:33.269Z,14.98
2022-12-13T21:29:06.447Z,15.95
2022-12-13T21:31:35.374Z,15.50
2022-12-13T21:34:03.914Z,16.25
2022-12-13T21:36:33.076Z,15.45
2022-12-13T21:39:05.134Z,14.52
2022-12-13T21:41:32.968Z,14.98
2022-12-13T21:44:00.790Z,16.17
2022-12-13T21:46:47.928Z,15.23
2022-12-13T21:49:17.740Z,15.70
2022-12-13T21:51:48.206Z,14.30
2022-12-13T21:54:18.683Z,16.40
2022-12-13T21:57:03.969Z,14.98
2022-12-13T21:59:32.008Z,14.43
2022-12-13T22:02:14.938Z,14.32
2022-12-13T22:04:44.439Z,13.65
2022-12-13T22:07:14.395Z,13.30
2022-12-13T22:09:43.628Z,15.48
2022-12-13T22:12:17.979Z,13.70
2022-12-13T22:14:46.182Z,13.98
2022-12-13T22:17:14.034Z,14.40
2022-12-13T22:19:41.762Z,14.13
2022-12-13T22:22:09.610Z,15.15
2022-12-13T22:24:37.598Z,15.15
2022-12-13T22:27:07.060Z,15.50
2022-12-13T22:29:34.717Z,13.88
2022-12-13T22:32:02.728Z,13.38
2022-12-13T22:34:30.453Z,13.70
2022-12-13T22:36:58.239Z,13.77
2022-12-13T22:39:26.131Z,14.15
2022-12-13T22:41:53.899Z,14.00
2022-12-13T22:44:23.075Z,13.10
2022-12-13T22:46:51.166Z,13.95
2022-12-13T22:49:19.126Z,13.65
2022-12-13T22:51:46.830Z,13.98
2022-12-13T22:54:16.858Z,14.00
2022-12-13T22:56:44.615Z,13.52
2022-12-13T22:59:12.353Z,12.88
2022-12-13T23:01:42.561Z,13.15
2022-12-13T23:04:15.537Z,14.15
2022-12-13T23:06:43.221Z,14.48
2022-12-13T23:09:13.878Z,13.32
2022-12-13T23:12:13.846Z,14.02
2022-12-13T23:14:41.551Z,14.73
2022-12-13T23:17:10.896Z,14.00
2022-12-13T23:19:49.093Z,13.98
2022-12-13T23:22:19.751Z,13.75
2022-12-13T23:24:47.476Z,13.32
2022-12-13T23:27:15.297Z,14.15
2022-12-13T23:29:43.183Z,13.40
2022-12-13T23:32:12.538Z,13.70
2022-12-13T23:34:40.429Z,13.75
2022-12-13T23:37:08.151Z,13.85
2022-12-13T23:39:35.956Z,12.95
2022-12-13T23:42:03.704Z,11.95
2022-12-13T23:44:31.433Z,11.93
2022-12-13T23:46:59.218Z,12.25
2022-12-13T23:49:28.849Z,12.55
2022-12-13T23:51:56.618Z,11.95
2022-12-13T23:54:24.374Z,14.75
2022-12-13T23:56:52.069Z,13.38
2022-12-13T23:59:19.712Z,13.88
